Latest Weather Observations for Gabo Island

IDN60801

Issued at 7:07 am EDT Friday 30 January 2015 (issued every 30 minutes, with the page automatically refreshed every 10 minutes)

About weather observations | Map of weather stations | Latest weather observations for NSW | Other Formats
Station Details ID: 084016 Name: GABO ISLAND LIGHTHOUSE Lat: -37.57 Lon: 149.92 Height: 15.2 m
Data from the previous 72 hours. | See also: Recent months at Gabo Island
Date/Time
EDT
Temp
°C
App
Temp
°C
Dew
Point
Rel
Hum
%
Delta-T
°C
Wind Press
QNH
hPa
Press
MSL
hPa
Rain
since 9 am
mm
Dir
 
Spd
km/h
Gust
km/h
Spd
kts
Gust
kts
30/07:00am 16.3 6.9 14.4 88 1.1 SW 57 76 31 41 1008.5 - 19.2
30/06:57am 15.8 6.4 14.4 91 0.8 SW 57 76 31 41 1008.5 - 19.2
30/06:30am 15.9 5.6 14.0 88 1.1 SW 61 76 33 41 1008.6 - 18.2
30/06:00am 15.6 4.7 13.5 87 1.2 SSW 63 76 34 41 1008.8 1008.7 18.0
30/05:30am 16.2 6.6 13.9 86 1.3 SW 57 70 31 38 1008.7 - 17.6
30/05:00am 15.9 5.6 13.0 83 1.6 SSW 59 72 32 39 1008.9 - 17.6
30/04:30am 15.8 5.9 14.2 90 0.9 SSW 59 78 32 42 1009.2 - 17.2
30/04:00am 15.6 5.5 13.6 88 1.1 SSW 59 83 32 45 1009.5 - 16.6
30/03:59am 16.7 6.7 13.9 83 1.6 SSW 59 82 32 44 1009.5 - 16.2
30/03:30am 16.3 5.8 12.3 77 2.2 SSW 59 70 32 38 1009.8 - 16.2
30/03:00am 16.3 6.8 13.5 83 1.6 SSW 56 70 30 38 1010.2 1010.1 16.2
30/02:30am 15.8 4.8 13.1 84 1.5 SSW 63 76 34 41 1010.4 - 16.2
30/02:00am 16.3 5.2 12.7 79 2.0 SSW 63 76 34 41 1010.6 - 16.2
30/01:30am 15.8 5.3 13.5 86 1.3 SSW 61 76 33 41 1010.9 - 16.0
30/01:00am 15.5 6.0 14.3 92 0.7 S 57 76 31 41 1011.1 - 15.4
30/12:49am 15.7 7.3 14.7 94 0.6 S 52 70 28 38 1011.4 - 14.6
30/12:30am 16.9 7.4 14.1 83 1.6 SSW 57 72 31 39 1011.5 - 13.0
30/12:00am 16.7 5.9 12.5 76 2.3 SSW 61 74 33 40 1011.6 1011.5 13.0
 
Date/Time
EDT
Temp
°C
App
Temp
°C
Dew
Point
Rel
Hum
%
Delta-T
°C
Wind Press
QNH
hPa
Press
MSL
hPa
Rain
since 9 am
mm
Dir
 
Spd
km/h
Gust
km/h
Spd
kts
Gust
kts
29/11:30pm 16.1 5.2 12.1 77 2.2 SSW 61 76 33 41 1011.9 - 13.0
29/11:03pm 16.4 6.6 12.8 79 2.0 SSW 56 74 30 40 1012.1 - 13.0
29/11:00pm 15.9 5.4 12.4 80 1.9 SSW 59 74 32 40 1012.2 - 13.0
29/10:30pm 16.5 6.7 12.7 78 2.1 SSW 56 74 30 40 1012.6 - 13.0
29/10:06pm 16.7 7.3 12.7 77 2.2 SSW 54 72 29 39 1012.9 - 13.0
29/10:00pm 16.8 7.4 12.8 77 2.2 SSW 54 65 29 35 1013.0 - 13.0
29/09:30pm 17.3 7.2 11.8 70 3.0 S 56 69 30 37 1012.9 - 13.0
29/09:00pm 17.3 7.7 12.0 71 2.9 SSW 54 69 29 37 1012.9 1012.9 13.0
29/08:30pm 17.5 8.3 12.2 71 2.9 SSW 52 65 28 35 1013.1 - 13.0
29/08:11pm 17.4 7.3 11.7 69 3.1 S 56 76 30 41 1013.0 - 13.0
29/08:00pm 17.4 7.4 10.9 65 3.5 S 54 65 29 35 1012.9 - 13.0
29/07:33pm 17.6 9.0 12.8 73 2.7 SSW 50 69 27 37 1012.9 - 12.8
29/07:30pm 17.4 8.4 12.9 75 2.5 SSW 52 63 28 34 1013.0 - 12.8
29/07:00pm 18.1 8.3 11.5 65 3.6 S 54 65 29 35 1012.9 - 12.4
29/06:30pm 18.3 7.8 10.9 62 4.0 S 57 67 31 36 1012.9 - 12.4
29/06:00pm 18.4 7.9 11.0 62 4.0 S 57 67 31 36 1013.1 1012.9 12.4
29/05:30pm 18.4 7.9 10.4 59 4.3 S 56 67 30 36 1013.0 - 12.4
29/05:00pm 19.1 9.8 11.7 62 4.1 S 52 65 28 35 1013.2 - 12.4
29/04:30pm 19.5 10.8 12.5 64 3.9 S 50 65 27 35 1013.4 - 12.4
29/04:00pm 18.9 8.9 10.8 59 4.4 S 54 63 29 34 1013.5 - 12.4
29/03:30pm 19.4 9.3 10.3 55 4.9 S 54 67 29 36 1013.6 - 12.4
29/03:00pm 18.6 9.8 12.1 66 3.6 S 50 61 27 33 1013.8 1013.8 12.4
29/02:44pm 17.4 10.7 13.3 77 2.3 S 41 52 22 28 1014.0 - 12.4
29/02:30pm 16.8 10.6 13.8 82 1.7 WSW 39 46 21 25 1014.3 - 12.4
29/02:00pm 16.5 10.6 13.7 83 1.6 SW 37 44 20 24 1014.7 - 12.4
29/01:52pm 16.5 12.4 13.8 84 1.5 SW 28 48 15 26 1014.7 - 12.2
29/01:30pm 15.2 7.9 12.7 85 1.4 SSW 43 52 23 28 1015.1 - 11.4
29/01:00pm 15.5 6.8 12.6 83 1.6 SW 50 61 27 33 1015.1 - 9.8
29/12:30pm 18.1 9.3 12.1 68 3.3 SW 50 61 27 33 1014.9 - 9.0
29/12:00pm 17.6 9.1 10.5 63 3.8 SW 46 54 25 29 1015.1 1015.0 9.0
29/11:52am 17.4 10.0 12.5 73 2.7 SW 43 54 23 29 1015.2 - 8.8
29/11:30am 16.6 8.8 13.0 79 2.0 S 46 61 25 33 1015.5 - 8.8
29/11:00am 18.4 11.3 13.3 72 2.9 SSW 43 52 23 28 1015.5 - 8.8
29/10:30am 17.7 12.0 12.9 73 2.7 SSW 35 43 19 23 1015.4 - 8.8
29/10:00am 16.5 9.7 13.1 80 1.9 S 41 52 22 28 1015.6 - 8.8
29/09:30am 12.7 7.7 12.3 97 0.2 SSW 30 76 16 41 1015.8 - 6.8
29/09:28am 13.7 9.4 13.2 97 0.3 S 28 76 15 41 1015.9 - 5.4
29/09:00am 17.2 14.3 12.9 76 2.4 SW 20 26 11 14 1015.7 1015.6 3.6
29/08:30am 16.8 13.6 11.8 72 2.7 SW 20 24 11 13 1015.6 - 3.6
29/08:00am 16.6 12.4 11.0 69 3.0 S 24 28 13 15 1015.5 - 3.6
29/07:30am 15.5 10.0 10.4 71 2.7 S 30 35 16 19 1015.3 - 3.6
29/07:00am 14.7 9.2 11.7 82 1.6 S 32 41 17 22 1015.4 - 3.2
29/06:30am 14.9 9.7 11.7 81 1.7 SE 30 43 16 23 1015.3 - 1.8
29/06:00am 16.4 10.9 10.6 68 3.1 S 30 37 16 20 1014.8 1014.8 1.6
29/05:30am 16.6 10.9 11.8 73 2.6 S 33 39 18 21 1014.9 - 1.6
29/05:00am 16.3 10.1 11.5 73 2.6 S 35 43 19 23 1014.6 - 1.6
29/04:30am 15.9 9.8 11.8 76 2.2 SSE 35 44 19 24 1014.4 - 1.6
29/04:00am 17.0 9.6 10.0 63 3.7 S 39 46 21 25 1014.4 - 1.6
29/03:30am 17.0 9.4 10.6 66 3.4 S 41 48 22 26 1014.8 - 1.6
29/03:00am 16.8 9.7 11.0 68 3.1 S 39 50 21 27 1014.9 1014.9 1.6
29/02:30am 15.1 9.3 11.6 79 1.9 S 33 52 18 28 1015.5 - 1.6
29/02:06am 16.9 9.2 10.3 65 3.5 S 41 59 22 32 1015.5 - 1.4
29/02:00am 16.6 9.7 10.2 66 3.4 S 37 46 20 25 1015.5 - 1.4
29/01:30am 17.1 8.0 11.4 69 3.1 S 50 56 27 30 1015.8 - 1.4
29/01:00am 17.0 12.4 11.0 68 3.2 S 26 37 14 20 1016.2 - 1.4
29/12:30am 16.8 11.5 11.2 69 3.0 S 30 39 16 21 1016.6 - 1.4
29/12:00am 17.4 11.1 9.8 61 4.0 S 33 39 18 21 1016.8 1016.7 1.4
 
Date/Time
EDT
Temp
°C
App
Temp
°C
Dew
Point
Rel
Hum
%
Delta-T
°C
Wind Press
QNH
hPa
Press
MSL
hPa
Rain
since 9 am
mm
Dir
 
Spd
km/h
Gust
km/h
Spd
kts
Gust
kts
28/11:30pm 17.5 10.5 10.1 62 3.9 S 37 44 20 24 1016.9 - 1.4
28/11:00pm 17.4 10.2 10.7 65 3.6 S 39 44 21 24 1017.3 - 1.4
28/10:30pm 17.8 12.2 12.0 69 3.2 S 33 41 18 22 1017.5 - 1.4
28/10:00pm 17.5 12.0 12.0 70 3.0 S 32 39 17 21 1017.6 - 1.4
28/09:30pm 17.2 11.8 12.3 73 2.7 S 32 41 17 22 1017.7 - 1.4
28/09:00pm 17.8 11.9 12.4 70 3.0 S 35 43 19 23 1017.4 1017.3 1.2
28/08:30pm 17.7 10.9 10.8 64 3.7 S 37 44 20 24 1017.3 - 1.2
28/08:09pm 17.3 12.6 13.2 77 2.3 S 30 37 16 20 1017.4 - 1.2
28/08:00pm 16.8 15.3 13.2 79 2.0 SW 13 17 7 9 1017.4 - 1.2
28/07:30pm 16.2 15.2 12.2 77 2.2 SW 9 11 5 6 1017.3 - 0.8
28/07:00pm 15.8 14.4 12.3 80 1.9 SSE 11 19 6 10 1017.4 - 0.8
28/06:30pm 17.3 13.9 12.6 74 2.6 SSE 22 28 12 15 1017.5 - 0.6
28/06:00pm 17.9 14.4 13.5 75 2.5 S 24 32 13 17 1017.3 1017.2 0.6
28/05:30pm 18.4 13.7 13.1 71 3.0 SSE 30 35 16 19 1017.3 - 0.6
28/05:00pm 17.6 15.9 12.4 71 2.9 SE 13 33 7 18 1017.5 - 0.6
28/04:51pm 17.7 12.2 11.9 69 3.2 SE 32 46 17 25 1017.5 - 0.6
28/04:30pm 18.0 10.8 13.0 72 2.8 S 43 52 23 28 1017.3 - 0.6
28/04:00pm 19.6 14.6 12.2 62 4.1 SSW 30 35 16 19 1017.0 - 0.6
28/03:30pm 19.2 13.5 11.3 60 4.3 S 32 37 17 20 1017.0 - 0.6
28/03:00pm 19.8 15.7 11.6 59 4.5 S 24 35 13 19 1017.1 1017.0 0.6
28/02:30pm 20.3 16.0 12.0 59 4.6 S 26 30 14 16 1017.1 - 0.6
28/02:00pm 20.5 17.8 13.5 64 4.0 S 20 26 11 14 1017.2 - 0.6
28/01:30pm 18.9 16.8 13.6 71 3.0 S 17 20 9 11 1017.4 - 0.6
28/01:00pm 18.0 16.5 13.2 73 2.7 S 13 24 7 13 1017.6 - 0.6
28/12:30pm 19.2 17.3 13.0 67 3.5 SE 15 20 8 11 1017.4 - 0.0
28/12:00pm 19.5 17.9 12.9 65 3.7 SE 13 17 7 9 1017.3 1017.2 0.0
28/11:30am 20.6 19.3 13.6 64 4.0 SE 13 19 7 10 1017.4 - 0.0
28/11:00am 20.5 18.9 12.9 61 4.3 SE 13 17 7 9 1017.4 - 0.0
28/10:30am 20.5 18.2 13.1 62 4.2 SE 17 20 9 11 1017.4 - 0.0
28/10:00am 20.0 17.2 13.3 65 3.8 SSE 20 26 11 14 1017.3 - 0.0
28/09:30am 19.8 17.4 13.7 68 3.5 SSE 19 26 10 14 1017.1 - 0.0
28/09:00am 19.3 15.1 12.3 64 3.9 SSE 26 32 14 17 1016.8 1016.7 2.4
28/08:30am 18.8 14.6 12.5 67 3.5 S 26 33 14 18 1016.7 - 2.4
28/08:00am 15.8 15.0 14.0 89 1.0 W 11 17 6 9 1016.8 - 2.4
28/07:30am 15.6 13.6 14.0 90 0.9 WNW 17 22 9 12 1016.3 - 2.2
28/07:00am 15.5 14.0 14.1 91 0.8 WNW 15 19 8 10 1015.9 - 2.2
28/06:30am 15.4 14.5 13.8 90 0.9 WNW 11 13 6 7 1016.0 - 2.2
28/06:00am 15.3 13.9 13.5 89 1.0 N 13 15 7 8 1015.9 1015.8 2.2
28/05:30am 15.1 13.5 13.9 92 0.7 NNW 15 17 8 9 1015.7 - 2.2
28/05:00am 15.2 13.3 14.1 93 0.6 NNW 17 20 9 11 1015.6 - 2.2
28/04:30am 15.5 14.3 14.1 91 0.8 NW 13 17 7 9 1015.6 - 2.0
28/04:00am 16.6 15.7 13.6 82 1.7 W 11 17 6 9 1015.7 - 0.0
28/03:30am 16.5 14.6 13.1 80 1.9 WNW 15 19 8 10 1015.5 - 0.0
28/03:00am 16.5 15.1 13.5 82 1.7 WNW 13 17 7 9 1015.6 1015.6 0.0
28/02:30am 16.6 15.1 13.0 79 2.0 WNW 13 17 7 9 1016.0 - 0.0
28/02:00am 16.9 15.4 13.1 78 2.1 NW 13 17 7 9 1016.2 - 0.0
28/01:30am 17.3 16.9 13.0 76 2.4 W 7 11 4 6 1016.3 - 0.0
28/01:00am 18.4 16.3 11.0 62 4.0 S 13 15 7 8 1016.5 - 0.0
28/12:30am 18.3 15.7 10.7 61 4.1 S 15 17 8 9 1016.6 - 0.0
28/12:00am 18.2 15.8 11.4 64 3.7 S 15 17 8 9 1016.6 1016.6 0.0
 
Date/Time
EDT
Temp
°C
App
Temp
°C
Dew
Point
Rel
Hum
%
Delta-T
°C
Wind Press
QNH
hPa
Press
MSL
hPa
Rain
since 9 am
mm
Dir
 
Spd
km/h
Gust
km/h
Spd
kts
Gust
kts
27/11:30pm 18.1 16.6 11.9 67 3.4 SSW 11 13 6 7 1016.7 - 0.0
27/11:00pm 17.6 16.7 13.7 78 2.2 W 11 13 6 7 1016.7 - 0.0
27/10:30pm 17.4 16.4 12.3 72 2.8 WNW 9 11 5 6 1016.9 - 0.0
27/10:00pm 17.7 16.8 11.2 65 3.5 WSW 7 9 4 5 1016.7 - 0.0
27/09:30pm 18.3 16.5 10.9 62 4.0 WSW 11 13 6 7 1016.7 - 0.0
27/09:00pm 18.1 16.5 10.2 60 4.2 SW 9 11 5 6 1016.4 1016.3 0.0
27/08:30pm 17.7 16.8 10.6 63 3.8 W 6 7 3 4 1016.2 - 0.0
27/08:00pm 18.2 17.3 10.8 62 4.0 SW 6 7 3 4 1016.2 - 0.0
27/07:30pm 18.4 17.4 10.4 59 4.3 SW 6 7 3 4 1016.0 - 0.0
27/07:00pm 18.5 18.3 10.5 59 4.3 W 2 6 1 3 1015.7 - 0.0
27/06:30pm 18.7 18.6 10.7 59 4.3 N 2 6 1 3 1015.5 - 0.0
27/06:00pm 18.9 18.0 10.8 59 4.4 NNE 6 7 3 4 1015.4 1015.3 0.0
27/05:30pm 18.9 17.8 10.1 56 4.7 NNE 6 9 3 5 1015.6 - 0.0
27/05:00pm 18.8 16.7 9.7 55 4.8 NE 11 13 6 7 1015.7 - 0.0
27/04:30pm 19.0 16.6 10.0 56 4.8 NE 13 17 7 9 1015.5 - 0.0
27/04:00pm 19.1 16.4 10.3 56 4.7 NNE 15 17 8 9 1015.5 - 0.0
27/03:30pm 19.8 17.6 10.8 56 4.9 NNE 13 15 7 8 1015.6 - 0.0
27/03:00pm 20.2 17.2 11.9 59 4.6 NE 19 20 10 11 1015.7 1015.6 0.0
27/02:30pm 19.1 18.3 11.0 59 4.4 ENE 6 7 3 4 1016.0 - 0.0
27/02:00pm 19.1 18.4 11.4 61 4.2 S 6 7 3 4 1016.1 - 0.0
27/01:30pm 18.8 18.1 11.5 62 4.0 S 6 7 3 4 1016.3 - 0.0
27/01:00pm 18.6 19.1 11.7 64 3.8 CALM 0 0 0 0 1016.5 - 0.0
27/12:30pm 18.3 18.0 12.6 69 3.2 S 6 7 3 4 1016.7 - 0.0
27/12:00pm 18.3 18.7 12.4 68 3.3 S 2 9 1 5 1016.8 1016.7 0.0
27/11:30am 18.2 17.6 12.4 69 3.2 S 7 7 4 4 1016.8 - 0.0
27/11:00am 18.0 17.4 12.4 70 3.1 SW 7 9 4 5 1016.9 - 0.0
27/10:30am 17.9 17.2 11.9 68 3.3 WSW 7 9 4 5 1016.7 - 0.0
27/10:00am 17.8 17.0 11.6 67 3.4 W 7 9 4 5 1016.8 - 0.0
27/09:30am 18.0 17.2 11.8 67 3.4 WNW 7 9 4 5 1016.6 - 0.0
27/09:00am 16.9 15.2 11.3 69 3.0 WNW 11 13 6 7 1016.6 1016.5 0.0
27/08:30am 16.5 14.5 11.5 72 2.7 WNW 13 17 7 9 1016.6 - 0.0
27/08:00am 16.6 14.4 10.8 68 3.1 WNW 13 15 7 8 1016.3 - 0.0
27/07:30am 15.8 13.2 10.7 71 2.7 WNW 15 19 8 10 1016.2 - 0.0

Other Formats:

Comma delimited format used in spreadsheet applications
http://www.bom.gov.au/fwo/IDN60801/IDN60801.94933.axf

JavaScript Object Notation format (JSON) in row-major order
http://www.bom.gov.au/fwo/IDN60801/IDN60801.94933.json